createdAt,value
2023-05-13T00:03:34.292Z,4.11
2023-05-13T00:08:56.904Z,4.17
2023-05-13T00:14:18.922Z,4.04
2023-05-13T00:19:41.481Z,3.97
2023-05-13T00:25:04.686Z,3.76
2023-05-13T00:30:26.526Z,3.82
2023-05-13T00:35:48.976Z,3.69
2023-05-13T00:41:12.638Z,3.70
2023-05-13T00:46:35.047Z,3.62
2023-05-13T00:51:57.566Z,3.64
2023-05-13T00:57:19.608Z,3.42
2023-05-13T01:02:50.927Z,3.54
2023-05-13T01:08:20.955Z,3.60
2023-05-13T01:13:49.596Z,3.65
2023-05-13T01:19:57.064Z,3.73
2023-05-13T01:25:19.879Z,3.79
2023-05-13T01:30:42.299Z,3.85
2023-05-13T01:36:05.608Z,3.89
2023-05-13T01:41:28.247Z,3.94
2023-05-13T01:46:51.151Z,4.15
2023-05-13T01:52:14.519Z,4.33
2023-05-13T01:57:36.649Z,4.73
2023-05-13T02:02:58.913Z,5.08
2023-05-13T02:08:22.377Z,5.25
2023-05-13T02:13:44.559Z,5.61
2023-05-13T02:19:07.588Z,6.03
2023-05-13T02:24:31.957Z,6.43
2023-05-13T02:29:53.815Z,6.66
2023-05-13T02:35:15.746Z,6.70
2023-05-13T02:40:38.480Z,6.73
2023-05-13T02:46:05.466Z,6.86
2023-05-13T02:51:28.708Z,7.41
2023-05-13T02:56:51.293Z,7.76
2023-05-13T03:02:13.451Z,7.84
2023-05-13T03:07:38.998Z,7.96
2023-05-13T03:13:01.056Z,8.27
2023-05-13T03:18:23.217Z,9.01
2023-05-13T03:23:45.943Z,11.57
2023-05-13T03:29:08.578Z,13.45
2023-05-13T03:34:32.030Z,13.22
2023-05-13T03:39:54.096Z,14.12
2023-05-13T03:45:16.576Z,15.23
2023-05-13T03:50:43.005Z,14.31
2023-05-13T03:56:05.845Z,16.30
2023-05-13T04:01:28.412Z,15.89
2023-05-13T04:06:50.300Z,19.06
2023-05-13T04:12:12.257Z,22.28
2023-05-13T04:17:34.484Z,23.41
2023-05-13T04:22:56.658Z,25.44
2023-05-13T04:28:20.107Z,27.88
2023-05-13T04:33:43.361Z,27.36
2023-05-13T04:39:05.498Z,26.59
2023-05-13T04:44:27.592Z,26.28
2023-05-13T04:49:49.663Z,27.30
2023-05-13T04:55:12.335Z,27.62
2023-05-13T05:00:34.785Z,27.84
2023-05-13T05:05:57.217Z,26.75
2023-05-13T05:11:19.644Z,26.91
2023-05-13T05:16:54.501Z,25.90
2023-05-13T05:22:16.652Z,26.83
2023-05-13T05:27:40.876Z,30.19
2023-05-13T05:33:03.039Z,29.27
2023-05-13T05:38:25.884Z,29.52
2023-05-13T05:43:51.081Z,28.88
2023-05-13T05:49:14.114Z,28.23
2023-05-13T05:54:36.212Z,27.39
2023-05-13T05:59:58.673Z,28.46
2023-05-13T06:05:20.932Z,29.49
2023-05-13T06:10:43.739Z,29.24
2023-05-13T06:16:07.298Z,29.61
2023-05-13T06:21:29.460Z,28.28
2023-05-13T06:26:53.738Z,28.11
2023-05-13T06:32:15.983Z,27.48
2023-05-13T06:37:38.178Z,27.42
2023-05-13T06:43:03.485Z,29.38
2023-05-13T06:48:34.840Z,28.54
2023-05-13T06:53:59.864Z,28.43
2023-05-13T06:59:23.278Z,28.76
2023-05-13T07:04:48.562Z,28.07
2023-05-13T07:10:11.265Z,28.34
2023-05-13T07:15:33.343Z,28.64
2023-05-13T07:20:56.945Z,28.40
2023-05-13T07:26:19.042Z,27.74
2023-05-13T07:31:41.297Z,28.55
2023-05-13T07:37:02.922Z,28.91
2023-05-13T07:42:25.348Z,28.20
2023-05-13T07:47:47.071Z,28.18
2023-05-13T07:53:09.142Z,27.98
2023-05-13T07:58:31.189Z,26.87
2023-05-13T08:03:53.272Z,27.65
2023-05-13T08:09:15.707Z,26.83
2023-05-13T08:14:37.584Z,27.55
2023-05-13T08:20:00.177Z,29.43
2023-05-13T08:25:22.898Z,28.35
2023-05-13T08:30:45.080Z,27.78
2023-05-13T08:36:07.435Z,28.18
2023-05-13T08:41:32.287Z,28.64
2023-05-13T08:47:20.699Z,27.37
2023-05-13T08:52:44.229Z,27.55
2023-05-13T08:58:06.489Z,28.47
2023-05-13T09:03:29.651Z,27.75
2023-05-13T09:08:52.028Z,27.48
2023-05-13T09:14:15.432Z,25.20
2023-05-13T09:19:37.254Z,27.16
2023-05-13T09:24:59.540Z,26.25
2023-05-13T09:30:22.335Z,25.85
2023-05-13T09:35:55.020Z,26.05
2023-05-13T09:41:21.152Z,25.31
2023-05-13T09:46:45.861Z,25.93
2023-05-13T09:52:13.123Z,25.40
2023-05-13T09:57:37.366Z,24.69
2023-05-13T10:03:02.436Z,24.82
2023-05-13T10:08:26.013Z,24.08
2023-05-13T10:13:56.506Z,23.35
2023-05-13T10:19:20.600Z,22.98
2023-05-13T10:24:43.994Z,23.02
2023-05-13T10:30:11.302Z,22.24
2023-05-13T10:35:39.171Z,21.25
2023-05-13T10:41:41.386Z,21.66
2023-05-13T10:47:05.539Z,23.67
2023-05-13T10:52:45.198Z,24.47
2023-05-13T10:58:10.375Z,24.19
2023-05-13T11:03:33.385Z,22.90
2023-05-13T11:08:56.413Z,22.26
2023-05-13T11:14:25.253Z,23.12
2023-05-13T11:19:49.531Z,23.55
2023-05-13T19:15:39.869Z,13.48
2023-05-13T19:21:01.960Z,13.38
2023-05-13T19:26:23.659Z,13.36
2023-05-13T19:31:47.076Z,12.85
2023-05-13T19:37:08.961Z,12.68
2023-05-13T19:42:30.942Z,12.62
2023-05-13T19:47:52.966Z,12.83
2023-05-13T19:53:15.040Z,12.63
2023-05-13T19:58:37.510Z,12.71
2023-05-13T20:03:59.984Z,12.47
2023-05-13T20:09:22.166Z,12.33
2023-05-13T20:14:48.981Z,12.14
2023-05-13T20:20:11.683Z,12.27
2023-05-13T20:25:33.444Z,12.12
2023-05-13T20:30:56.235Z,12.18
2023-05-13T20:36:18.382Z,12.14
2023-05-13T20:41:40.876Z,12.09
2023-05-13T20:47:03.335Z,11.84
2023-05-13T20:52:25.615Z,11.74
2023-05-13T20:57:49.172Z,11.57
2023-05-13T21:03:11.251Z,11.39
2023-05-13T21:08:37.396Z,11.40
2023-05-13T21:13:59.537Z,11.17
2023-05-13T21:19:22.708Z,11.11
2023-05-13T21:24:47.729Z,10.93
2023-05-13T21:30:10.817Z,10.75
2023-05-13T21:35:32.856Z,10.60
2023-05-13T21:40:55.096Z,10.39
2023-05-13T21:46:17.661Z,10.16
2023-05-13T21:51:39.943Z,9.72
2023-05-13T21:57:02.206Z,9.60
2023-05-13T22:02:24.276Z,9.63
2023-05-13T22:07:46.844Z,9.72
2023-05-13T22:13:09.190Z,9.56
2023-05-13T22:18:31.602Z,9.47
2023-05-13T22:23:53.497Z,9.35
2023-05-13T22:29:15.529Z,9.12
2023-05-13T22:34:37.627Z,9.10
2023-05-13T22:39:59.648Z,8.83
2023-05-13T22:45:21.801Z,8.69
2023-05-13T22:50:44.469Z,8.73
2023-05-13T22:56:07.959Z,8.76
2023-05-13T23:01:30.406Z,8.70
2023-05-13T23:06:54.960Z,8.39
2023-05-13T23:12:17.096Z,8.29
2023-05-13T23:17:38.759Z,8.15
2023-05-13T23:23:00.562Z,7.91
2023-05-13T23:28:22.874Z,7.90
2023-05-13T23:33:44.794Z,7.67
2023-05-13T23:39:07.411Z,7.63
2023-05-13T23:44:31.519Z,7.50
2023-05-13T23:49:53.454Z,7.21
2023-05-13T23:55:15.868Z,6.96
